Time;durP1;ratioP1;P1;durP2;ratioP2;P2;SDS_P1;SDS_P2;PMS_P1;PMS_P2;Temp;Humidity;BMP_temperature;BMP_pressure;BME280_temperature;BME280_humidity;BME280_pressure;Samples;Min_cycle;Max_cycle;Signal;HPM_P1;HPM_P2
2023/03/31 00:00:10;;;;;;;23.83;3.43;;;10.80;99.90;;;;;;4994107;28;20476;-70
2023/03/31 00:02:42;;;;;;;21.23;3.47;;;10.70;99.90;;;;;;4996806;28;20045;-70
2023/03/31 00:05:16;;;;;;;19.23;3.17;;;10.70;99.90;;;;;;5007133;28;20101;-70
2023/03/31 00:07:44;;;;;;;12.75;2.65;;;10.60;99.90;;;;;;4988569;28;20376;-71
2023/03/31 00:10:10;;;;;;;20.55;4.07;;;10.60;99.90;;;;;;4989431;28;20103;-70
2023/03/31 00:12:36;;;;;;;20.88;3.28;;;10.60;99.90;;;;;;5008484;28;20041;-71
2023/03/31 00:15:01;;;;;;;23.37;4.70;;;10.50;99.90;;;;;;4989505;28;20142;-71
2023/03/31 00:17:27;;;;;;;13.80;2.80;;;10.50;99.90;;;;;;4997938;28;20037;-70
2023/03/31 00:19:59;;;;;;;14.47;2.40;;;10.50;99.90;;;;;;5009208;28;20382;-70
2023/03/31 00:22:26;;;;;;;19.58;3.35;;;10.40;99.90;;;;;;4996236;28;20045;-71
2023/03/31 00:24:52;;;;;;;23.08;3.70;;;10.40;99.90;;;;;;5007846;28;20046;-70
2023/03/31 00:27:18;;;;;;;19.10;3.55;;;10.40;99.90;;;;;;5002033;28;20056;-71
2023/03/31 00:29:44;;;;;;;19.23;3.03;;;10.40;99.90;;;;;;4992551;28;20073;-71
2023/03/31 00:32:10;;;;;;;19.80;3.22;;;10.30;99.90;;;;;;4985769;28;20045;-70
2023/03/31 00:34:37;;;;;;;13.07;3.10;;;10.30;99.90;;;;;;4992079;28;20040;-70
2023/03/31 00:37:02;;;;;;;;;;;10.30;99.90;;;;;;4981392;28;20041;-70
2023/03/31 00:39:34;;;;;;;21.48;3.55;;;10.20;99.90;;;;;;5002706;28;19918;-71
2023/03/31 00:42:02;;;;;;;13.88;2.78;;;10.20;99.90;;;;;;4986502;28;20068;-70
2023/03/31 00:44:29;;;;;;;10.23;2.60;;;10.20;99.90;;;;;;4986213;28;20126;-71
2023/03/31 00:47:09;;;;;;;17.55;2.97;;;10.20;99.90;;;;;;4994342;28;20041;-70
2023/03/31 00:49:48;;;;;;;31.50;3.05;;;10.20;99.90;;;;;;5007199;28;20129;-71
2023/03/31 00:52:36;;;;;;;17.08;2.65;;;10.10;99.90;;;;;;5010871;28;20073;-71
2023/03/31 00:55:07;;;;;;;15.02;2.70;;;10.10;99.90;;;;;;4987320;28;20056;-71
2023/03/31 00:57:38;;;;;;;17.35;3.15;;;10.10;99.90;;;;;;4988806;28;20041;-71
2023/03/31 01:00:13;;;;;;;11.48;2.70;;;10.10;99.90;;;;;;4990902;28;20360;-71
2023/03/31 01:02:50;;;;;;;17.95;3.30;;;10.00;99.90;;;;;;5006373;28;20046;-71
2023/03/31 01:05:20;;;;;;;15.48;3.42;;;10.00;99.90;;;;;;5003817;28;20053;-70
2023/03/31 01:07:49;;;;;;;16.83;2.90;;;9.90;99.90;;;;;;5004979;28;20054;-71
2023/03/31 01:10:15;;;;;;;16.20;2.72;;;10.00;99.90;;;;;;4987986;28;20064;-71
2023/03/31 01:12:44;;;;;;;8.50;2.47;;;9.90;99.90;;;;;;4988504;28;20045;-71
2023/03/31 01:15:11;;;;;;;13.70;2.67;;;9.90;99.90;;;;;;4990078;28;20515;-71
2023/03/31 01:17:39;;;;;;;13.52;2.55;;;9.90;99.90;;;;;;4988832;28;20057;-71
2023/03/31 01:20:20;;;;;;;17.75;3.72;;;9.90;99.90;;;;;;5006559;28;20395;-70
2023/03/31 01:23:23;;;;;;;11.77;2.75;;;9.80;99.90;;;;;;5008266;28;20041;-71
2023/03/31 01:26:19;;;;;;;13.77;2.10;;;9.80;99.90;;;;;;4992842;28;20080;-70
2023/03/31 01:28:58;;;;;;;12.70;2.65;;;9.80;99.90;;;;;;4972149;28;20060;-70
2023/03/31 01:31:45;;;;;;;14.88;3.30;;;9.70;99.90;;;;;;5005677;28;20130;-70
2023/03/31 01:34:23;;;;;;;17.88;2.83;;;9.80;99.90;;;;;;4992657;28;20058;-71
2023/03/31 01:37:08;;;;;;;18.55;2.88;;;9.80;99.90;;;;;;5010417;28;20369;-70
2023/03/31 01:42:20;;;;;;;13.65;2.50;;;9.70;99.90;;;;;;5041887;23;20085;-84
2023/03/31 01:45:01;;;;;;;17.87;2.57;;;9.70;99.90;;;;;;5003416;28;20080;-85
2023/03/31 01:47:53;;;;;;;13.55;3.03;;;9.70;99.90;;;;;;5023174;28;20038;-85
2023/03/31 01:50:42;;;;;;;10.77;2.80;;;9.80;99.90;;;;;;4998818;28;20137;-84
2023/03/31 01:53:27;;;;;;;11.52;2.25;;;9.60;99.90;;;;;;4990420;28;20088;-85
2023/03/31 01:56:06;;;;;;;10.63;3.10;;;9.60;99.90;;;;;;5005605;28;20328;-82
2023/03/31 01:58:43;;;;;;;17.08;3.65;;;9.70;99.90;;;;;;5011682;28;20145;-85
2023/03/31 02:01:23;;;;;;;20.48;3.45;;;9.70;99.90;;;;;;5006226;28;20041;-85
2023/03/31 02:04:13;;;;;;;12.88;3.10;;;9.70;99.90;;;;;;4981118;28;20580;-84
2023/03/31 02:06:48;;;;;;;11.50;2.50;;;9.70;99.90;;;;;;5008649;28;20137;-85
2023/03/31 02:09:23;;;;;;;18.20;2.92;;;9.70;99.90;;;;;;5010683;28;20042;-84
2023/03/31 02:11:52;;;;;;;;;;;9.70;99.90;;;;;;4994863;28;20244;-85
2023/03/31 02:14:26;;;;;;;9.60;2.75;;;9.80;99.90;;;;;;4994142;28;19925;-85
2023/03/31 02:16:57;;;;;;;15.32;2.60;;;9.70;99.90;;;;;;4994238;28;20042;-85
2023/03/31 02:19:26;;;;;;;13.38;2.83;;;9.70;99.90;;;;;;4993164;28;20042;-85
2023/03/31 02:21:53;;;;;;;12.60;2.58;;;9.80;99.90;;;;;;5013097;28;20038;-85
2023/03/31 02:24:22;;;;;;;18.73;2.63;;;9.70;99.90;;;;;;4992164;28;20042;-85
2023/03/31 02:26:52;;;;;;;14.00;3.53;;;9.80;99.90;;;;;;4996702;28;20089;-84
2023/03/31 02:29:18;;;;;;;21.10;2.33;;;9.80;99.90;;;;;;4988368;28;20042;-85
2023/03/31 02:31:59;;;;;;;14.20;2.40;;;9.80;99.90;;;;;;4992242;28;20121;-85
2023/03/31 02:34:25;;;;;;;15.05;1.95;;;9.80;99.90;;;;;;4992492;28;20108;-85
2023/03/31 02:36:51;;;;;;;13.60;2.20;;;9.90;99.90;;;;;;5004039;28;20042;-84
2023/03/31 02:39:22;;;;;;;12.82;2.20;;;9.80;99.90;;;;;;4990789;28;20045;-85
2023/03/31 02:41:48;;;;;;;17.88;2.53;;;9.80;99.90;;;;;;4994560;28;20137;-85
2023/03/31 02:44:24;;;;;;;9.57;2.37;;;9.80;99.90;;;;;;4992579;28;20189;-84
2023/03/31 02:46:50;;;;;;;13.55;2.75;;;9.80;99.90;;;;;;4972611;28;20552;-85
2023/03/31 02:49:24;;;;;;;15.80;1.85;;;9.80;99.90;;;;;;4977866;28;20046;-85
2023/03/31 02:51:58;;;;;;;22.60;3.47;;;9.80;99.90;;;;;;5010540;28;20539;-85
2023/03/31 02:54:49;;;;;;;11.43;2.08;;;9.80;99.90;;;;;;4974883;28;20029;-85
2023/03/31 02:57:36;;;;;;;6.82;1.42;;;9.80;99.90;;;;;;4993879;28;20414;-84
2023/03/31 03:00:12;;;;;;;12.23;2.38;;;9.80;99.90;;;;;;4988410;28;20042;-84
2023/03/31 03:03:15;;;;;;;12.30;2.25;;;9.80;99.90;;;;;;4993247;28;20076;-85
2023/03/31 03:05:52;;;;;;;13.02;2.35;;;9.80;99.90;;;;;;4993479;28;20371;-85
2023/03/31 03:08:45;;;;;;;10.77;2.03;;;9.90;99.90;;;;;;4975125;28;20080;-85
2023/03/31 03:11:47;;;;;;;10.15;2.20;;;9.80;99.90;;;;;;4976433;28;20061;-84
2023/03/31 03:14:52;;;;;;;6.60;1.92;;;9.80;99.90;;;;;;5002831;28;20033;-85
2023/03/31 03:17:38;;;;;;;9.82;2.22;;;9.80;99.90;;;;;;4982818;28;20033;-85
2023/03/31 03:20:07;;;;;;;12.70;2.47;;;9.80;99.90;;;;;;4992611;28;20576;-85
2023/03/31 03:22:34;;;;;;;6.40;1.83;;;9.80;99.90;;;;;;4976992;28;20041;-85
2023/03/31 03:25:02;;;;;;;8.48;2.20;;;9.90;99.90;;;;;;4977294;28;20124;-85
2023/03/31 03:27:28;;;;;;;15.48;2.88;;;9.80;99.90;;;;;;4992690;28;20509;-85
2023/03/31 03:30:01;;;;;;;10.95;2.80;;;9.80;99.90;;;;;;4993039;28;20456;-84
2023/03/31 03:32:27;;;;;;;13.93;2.55;;;9.90;99.90;;;;;;4990828;28;20070;-85
2023/03/31 03:34:53;;;;;;;11.53;2.33;;;9.90;99.90;;;;;;4991153;28;20094;-84
2023/03/31 03:37:18;;;;;;;13.37;2.27;;;9.90;99.90;;;;;;4974145;28;20064;-85
2023/03/31 03:39:44;;;;;;;10.35;1.90;;;9.90;99.90;;;;;;5008758;28;20050;-85
2023/03/31 03:42:11;;;;;;;12.10;2.20;;;10.00;99.90;;;;;;4961515;28;20057;-85
2023/03/31 03:44:37;;;;;;;12.53;2.10;;;10.00;99.90;;;;;;5011521;28;20088;-85
2023/03/31 03:47:02;;;;;;;13.13;2.30;;;10.00;99.90;;;;;;4992080;28;20413;-82
2023/03/31 03:49:28;;;;;;;13.07;2.25;;;10.00;99.90;;;;;;4994002;28;20048;-85
2023/03/31 03:51:54;;;;;;;11.10;2.53;;;10.00;99.90;;;;;;4977944;28;20037;-85
2023/03/31 03:54:20;;;;;;;13.80;2.88;;;10.00;99.90;;;;;;4994421;28;20061;-85
2023/03/31 03:56:45;;;;;;;6.87;2.20;;;10.00;99.90;;;;;;4974137;28;20181;-85
2023/03/31 03:59:11;;;;;;;6.83;2.03;;;10.00;99.90;;;;;;4992080;28;20033;-85
2023/03/31 04:01:40;;;;;;;10.25;2.47;;;10.00;99.90;;;;;;4992699;28;20298;-85
2023/03/31 04:04:11;;;;;;;12.02;2.45;;;10.00;99.90;;;;;;4991703;28;20532;-85
2023/03/31 04:06:40;;;;;;;14.07;2.70;;;10.00;99.90;;;;;;5008726;28;20042;-85
2023/03/31 04:09:06;;;;;;;7.93;2.38;;;10.00;99.90;;;;;;4996647;28;20042;-85
2023/03/31 04:11:32;;;;;;;9.60;3.13;;;10.10;99.90;;;;;;4993551;28;20045;-85
2023/03/31 04:13:58;;;;;;;9.48;2.70;;;10.00;99.90;;;;;;4991651;28;20413;-85
2023/03/31 04:16:24;;;;;;;4.47;2.50;;;10.00;99.90;;;;;;4989041;28;20050;-85
2023/03/31 04:19:03;;;;;;;12.55;3.05;;;10.10;99.90;;;;;;4988962;28;20038;-84
2023/03/31 04:21:34;;;;;;;6.93;2.90;;;10.10;99.90;;;;;;4977681;28;20061;-84
2023/03/31 04:24:03;;;;;;;6.95;2.72;;;10.10;99.90;;;;;;5011622;28;20061;-85
2023/03/31 04:26:41;;;;;;;11.45;2.88;;;10.00;99.90;;;;;;4992085;28;20049;-85
2023/03/31 04:29:11;;;;;;;6.47;2.30;;;10.00;99.90;;;;;;5010296;28;20128;-85
2023/03/31 04:31:41;;;;;;;10.98;2.40;;;10.00;99.90;;;;;;4989755;28;20042;-84
2023/03/31 04:34:13;;;;;;;8.18;2.90;;;10.00;99.90;;;;;;4978953;28;20041;-84
2023/03/31 04:36:47;;;;;;;10.18;2.25;;;10.00;99.90;;;;;;5003284;28;20046;-85
2023/03/31 04:39:25;;;;;;;8.38;2.25;;;10.00;99.90;;;;;;4992675;28;20042;-85
2023/03/31 04:41:54;;;;;;;7.30;2.40;;;10.00;99.90;;;;;;4975841;28;20172;-85
2023/03/31 04:44:22;;;;;;;11.05;3.20;;;10.00;99.90;;;;;;4990632;28;20121;-85
2023/03/31 04:46:48;;;;;;;5.38;2.50;;;10.00;99.90;;;;;;4992770;28;20042;-84
2023/03/31 04:49:16;;;;;;;6.72;2.35;;;10.00;99.90;;;;;;4998185;28;20412;-85
2023/03/31 04:51:41;;;;;;;8.13;2.50;;;10.00;99.90;;;;;;5010594;28;20061;-85
2023/03/31 04:54:09;;;;;;;8.70;2.67;;;10.00;99.90;;;;;;4996562;28;20498;-82
2023/03/31 04:56:40;;;;;;;8.00;2.58;;;10.00;99.90;;;;;;4996353;28;20042;-85
2023/03/31 04:59:07;;;;;;;11.70;3.50;;;10.00;99.90;;;;;;4999540;28;20041;-85
2023/03/31 05:01:35;;;;;;;8.45;2.63;;;10.00;99.90;;;;;;4989363;28;20046;-84
2023/03/31 05:04:03;;;;;;;8.85;3.22;;;10.00;99.90;;;;;;5013057;28;20041;-85
2023/03/31 05:06:29;;;;;;;12.70;3.17;;;10.00;99.90;;;;;;4997842;28;20046;-84
2023/03/31 05:08:55;;;;;;;11.73;3.10;;;10.00;99.90;;;;;;4978106;28;20053;-84
2023/03/31 05:11:20;;;;;;;5.93;2.73;;;10.00;99.90;;;;;;4993805;28;20505;-84
2023/03/31 05:13:46;;;;;;;11.20;3.42;;;10.00;99.90;;;;;;4982161;28;20177;-85
2023/03/31 05:16:13;;;;;;;13.97;3.70;;;10.00;99.90;;;;;;5007879;28;20133;-84
2023/03/31 05:18:42;;;;;;;8.65;3.03;;;10.00;99.90;;;;;;4993225;28;20069;-84
2023/03/31 05:21:14;;;;;;;6.00;2.72;;;10.00;99.90;;;;;;4996098;28;20045;-85
2023/03/31 05:23:40;;;;;;;9.90;3.60;;;10.00;99.90;;;;;;4996779;28;20046;-84
2023/03/31 05:26:06;;;;;;;10.97;3.90;;;10.00;99.90;;;;;;5007472;28;20516;-84
2023/03/31 05:28:33;;;;;;;11.75;3.67;;;10.00;99.90;;;;;;4994537;28;20042;-84
2023/03/31 05:31:00;;;;;;;9.43;3.20;;;9.90;99.90;;;;;;4992972;28;20050;-85
2023/03/31 05:33:27;;;;;;;14.40;3.35;;;10.00;99.90;;;;;;4976045;28;20072;-84
2023/03/31 05:35:56;;;;;;;5.50;3.28;;;10.00;99.90;;;;;;5011015;28;20402;-83
2023/03/31 05:38:30;;;;;;;10.05;3.10;;;10.00;99.90;;;;;;4992264;28;20048;-84
2023/03/31 05:40:58;;;;;;;9.43;3.80;;;10.00;99.90;;;;;;5009036;28;20038;-83
2023/03/31 05:43:35;;;;;;;7.70;2.60;;;10.10;99.90;;;;;;4994456;28;20382;-84
2023/03/31 05:46:01;;;;;;;7.43;3.10;;;10.00;99.90;;;;;;4979542;28;20049;-84
2023/03/31 05:48:27;;;;;;;8.80;2.70;;;10.00;99.90;;;;;;4976167;28;20169;-85
2023/03/31 05:51:01;;;;;;;13.20;3.75;;;10.00;99.90;;;;;;4997136;28;20505;-85
2023/03/31 05:53:34;;;;;;;12.55;3.38;;;10.10;99.90;;;;;;5011295;28;20386;-83
2023/03/31 05:56:05;;;;;;;6.78;3.00;;;10.10;99.90;;;;;;4992111;28;20378;-84
2023/03/31 05:58:34;;;;;;;6.60;3.67;;;10.10;99.90;;;;;;4978485;28;20055;-85
2023/03/31 06:01:09;;;;;;;8.82;3.10;;;10.10;99.90;;;;;;4989723;28;20038;-84
2023/03/31 06:03:40;;;;;;;10.45;3.13;;;10.10;99.90;;;;;;4993142;28;20472;-84
2023/03/31 06:06:16;;;;;;;10.27;2.83;;;10.10;99.90;;;;;;4973017;28;20041;-82
2023/03/31 06:08:53;;;;;;;7.63;2.75;;;10.10;99.90;;;;;;4976740;28;20277;-82
2023/03/31 06:11:21;;;;;;;9.43;2.70;;;10.10;99.90;;;;;;5007965;28;20488;-83
2023/03/31 06:13:48;;;;;;;8.77;2.30;;;10.10;99.90;;;;;;5000546;28;20046;-85
2023/03/31 06:16:16;;;;;;;8.27;2.58;;;10.10;99.90;;;;;;4979455;28;20046;-82
2023/03/31 06:18:42;;;;;;;6.80;2.30;;;10.10;99.90;;;;;;4980925;28;20049;-84
2023/03/31 06:21:12;;;;;;;6.93;2.20;;;10.10;99.90;;;;;;4980914;28;20064;-83
2023/03/31 06:23:43;;;;;;;9.77;2.35;;;10.00;99.90;;;;;;4996281;28;20054;-86
2023/03/31 06:26:18;;;;;;;5.80;2.13;;;10.10;99.90;;;;;;4980245;28;20397;-86
2023/03/31 06:28:57;;;;;;;4.20;1.98;;;10.10;99.90;;;;;;5009374;28;20034;-84
2023/03/31 06:31:26;;;;;;;9.05;2.22;;;10.10;99.90;;;;;;4998123;28;20068;-84
2023/03/31 06:33:52;;;;;;;12.15;2.35;;;10.10;99.90;;;;;;4996393;28;20045;-85
2023/03/31 06:36:20;;;;;;;3.92;1.70;;;10.10;99.90;;;;;;4996623;28;20030;-84
2023/03/31 06:38:46;;;;;;;4.53;1.88;;;10.10;99.90;;;;;;4982746;28;20058;-85
2023/03/31 06:41:14;;;;;;;5.05;2.03;;;10.10;99.90;;;;;;5009842;28;20045;-85
2023/03/31 06:43:42;;;;;;;10.73;2.05;;;10.20;99.90;;;;;;4988890;28;20100;-84
2023/03/31 06:46:12;;;;;;;7.07;2.05;;;10.10;99.90;;;;;;4989214;28;20047;-84
2023/03/31 06:48:37;;;;;;;6.50;2.10;;;10.10;99.90;;;;;;4975500;28;20072;-85
2023/03/31 06:51:05;;;;;;;6.97;2.20;;;10.10;99.90;;;;;;4979473;28;20044;-84
2023/03/31 06:53:34;;;;;;;7.28;2.13;;;10.10;99.90;;;;;;4990438;28;20061;-85
2023/03/31 06:56:00;;;;;;;3.15;1.75;;;10.10;99.90;;;;;;5001670;28;20145;-84
2023/03/31 06:58:31;;;;;;;4.65;2.25;;;10.10;99.90;;;;;;5011796;28;20078;-84
2023/03/31 07:00:57;;;;;;;5.95;2.10;;;10.00;99.90;;;;;;4978876;28;20057;-83
2023/03/31 07:03:30;;;;;;;4.35;1.67;;;10.10;99.90;;;;;;5007424;28;20049;-85
2023/03/31 07:05:56;;;;;;;7.03;1.88;;;10.10;99.90;;;;;;4998074;28;20054;-84
2023/03/31 07:08:22;;;;;;;5.57;1.80;;;10.10;99.90;;;;;;4974969;28;20049;-85
2023/03/31 07:10:52;;;;;;;5.43;2.00;;;10.10;99.90;;;;;;4996781;28;20061;-84
2023/03/31 07:13:18;;;;;;;5.68;1.65;;;10.20;99.90;;;;;;5014340;28;20485;-84
2023/03/31 07:15:47;;;;;;;6.43;2.30;;;10.10;99.90;;;;;;4991135;28;20048;-84
2023/03/31 07:18:14;;;;;;;7.00;2.47;;;10.10;99.90;;;;;;4995912;28;20052;-85
2023/03/31 07:20:43;;;;;;;4.93;1.70;;;10.10;99.90;;;;;;4995898;28;20076;-84
2023/03/31 07:23:09;;;;;;;5.88;1.70;;;10.10;99.90;;;;;;4997111;28;20042;-84
2023/03/31 07:25:35;;;;;;;4.15;1.88;;;10.20;99.90;;;;;;4976939;28;20046;-85
2023/03/31 07:28:05;;;;;;;3.90;1.58;;;10.10;99.90;;;;;;4998189;28;20061;-85
2023/03/31 07:30:31;;;;;;;3.05;1.33;;;10.10;99.90;;;;;;5012922;28;20042;-85
2023/03/31 07:33:00;;;;;;;6.10;1.60;;;10.10;99.90;;;;;;4991047;28;20093;-83
2023/03/31 07:35:26;;;;;;;3.55;1.55;;;10.10;99.90;;;;;;5007071;28;20106;-84
2023/03/31 07:37:52;;;;;;;6.93;1.87;;;10.10;99.90;;;;;;4987512;28;20121;-85
2023/03/31 07:42:47;;;;;;;7.90;2.28;;;10.10;99.90;;;;;;4977360;28;19921;-71
2023/03/31 07:45:14;;;;;;;3.53;1.60;;;10.10;99.90;;;;;;4979679;28;20137;-70
2023/03/31 07:47:40;;;;;;;3.38;1.58;;;10.00;99.90;;;;;;4981058;28;20050;-70
2023/03/31 07:50:07;;;;;;;3.58;1.48;;;10.10;99.90;;;;;;4984908;28;20046;-70
2023/03/31 07:52:33;;;;;;;3.42;1.48;;;10.10;99.90;;;;;;4984396;28;20046;-70
2023/03/31 07:54:59;;;;;;;9.88;1.52;;;10.10;99.90;;;;;;4981678;28;20049;-70
2023/03/31 07:57:24;;;;;;;5.07;1.73;;;10.10;99.90;;;;;;4982481;28;20042;-70
2023/03/31 07:59:50;;;;;;;4.93;1.60;;;10.20;99.90;;;;;;4978157;28;20089;-70
2023/03/31 08:02:16;;;;;;;3.57;1.60;;;10.20;99.90;;;;;;4979285;28;20050;-70
2023/03/31 08:04:43;;;;;;;4.40;1.33;;;10.20;99.90;;;;;;4960145;28;20392;-70
2023/03/31 08:07:10;;;;;;;3.88;1.98;;;10.20;99.90;;;;;;4983486;28;20070;-69
2023/03/31 08:09:36;;;;;;;4.63;1.83;;;10.20;99.90;;;;;;4981367;28;20042;-69
2023/03/31 08:12:02;;;;;;;4.10;1.70;;;10.20;99.90;;;;;;4978039;28;20125;-69
2023/03/31 08:14:27;;;;;;;4.00;1.85;;;10.20;99.90;;;;;;4983039;28;20476;-69
2023/03/31 08:16:54;;;;;;;9.37;3.37;;;10.20;99.90;;;;;;4982598;28;20069;-69
2023/03/31 08:19:21;;;;;;;6.95;2.90;;;10.20;99.90;;;;;;4977033;28;20050;-69
2023/03/31 08:21:47;;;;;;;5.68;2.20;;;10.30;99.90;;;;;;4966768;28;20069;-69
2023/03/31 08:24:12;;;;;;;6.90;3.42;;;10.30;99.90;;;;;;4981434;28;20460;-69
2023/03/31 08:26:40;;;;;;;5.40;1.65;;;10.20;99.90;;;;;;4979271;28;20093;-69
2023/03/31 08:29:06;;;;;;;5.38;1.80;;;10.30;99.90;;;;;;4982160;28;20496;-69
2023/03/31 08:31:32;;;;;;;4.68;1.60;;;10.30;99.90;;;;;;4978824;28;20415;-70
2023/03/31 08:33:58;;;;;;;3.65;1.73;;;10.40;99.90;;;;;;4979142;28;20054;-69
2023/03/31 08:36:25;;;;;;;5.68;1.52;;;10.40;99.90;;;;;;4979395;28;20039;-69
2023/03/31 08:38:52;;;;;;;4.10;1.55;;;10.50;99.90;;;;;;4960518;28;20112;-69
2023/03/31 08:41:42;;;;;;;3.95;1.73;;;10.50;99.90;;;;;;4981868;28;20042;-69
2023/03/31 08:44:32;;;;;;;4.40;2.28;;;10.50;99.90;;;;;;4981434;28;20051;-69
2023/03/31 08:47:02;;;;;;;4.35;1.60;;;10.50;99.90;;;;;;4961580;28;20112;-69
2023/03/31 08:49:35;;;;;;;6.90;1.88;;;10.60;99.90;;;;;;4981715;28;20560;-69
2023/03/31 08:52:06;;;;;;;7.90;1.80;;;10.60;99.90;;;;;;4995240;28;20049;-69
2023/03/31 08:54:37;;;;;;;4.22;1.55;;;10.60;99.90;;;;;;4983459;28;20069;-69
2023/03/31 08:57:05;;;;;;;4.95;2.13;;;10.70;99.90;;;;;;4959871;28;20050;-69
2023/03/31 08:59:34;;;;;;;4.15;1.70;;;10.70;99.90;;;;;;4993595;28;20097;-69
2023/03/31 09:02:31;;;;;;;3.40;1.55;;;10.70;99.90;;;;;;4982910;28;20046;-69
2023/03/31 09:05:10;;;;;;;5.60;1.92;;;10.80;99.90;;;;;;4979917;28;20496;-69
2023/03/31 09:08:05;;;;;;;4.63;1.92;;;10.80;99.90;;;;;;4981230;28;20042;-69
2023/03/31 09:10:40;;;;;;;6.78;2.20;;;10.80;99.90;;;;;;4983338;28;20578;-69
2023/03/31 09:13:08;;;;;;;6.57;1.73;;;10.90;99.90;;;;;;4983185;28;20042;-69
2023/03/31 09:15:34;;;;;;;4.43;1.75;;;11.00;99.90;;;;;;4978678;28;20038;-69
2023/03/31 09:18:06;;;;;;;5.67;1.77;;;11.00;99.90;;;;;;4981970;28;20049;-69
2023/03/31 09:20:39;;;;;;;10.15;2.03;;;11.10;99.90;;;;;;4982296;28;20048;-69
2023/03/31 09:23:26;;;;;;;3.97;2.13;;;11.10;99.90;;;;;;4979870;28;20046;-69
2023/03/31 09:25:52;;;;;;;3.67;1.77;;;11.20;99.90;;;;;;4975304;28;20050;-69
2023/03/31 09:28:28;;;;;;;6.55;2.05;;;11.30;99.90;;;;;;4982215;28;20045;-75
2023/03/31 09:30:55;;;;;;;6.67;2.50;;;11.30;99.90;;;;;;4981352;28;20096;-69
2023/03/31 09:33:32;;;;;;;6.80;2.22;;;11.40;99.90;;;;;;4963569;28;20626;-69
2023/03/31 09:36:02;;;;;;;5.32;2.13;;;11.40;99.90;;;;;;4956967;28;20108;-69
2023/03/31 09:38:29;;;;;;;6.68;1.95;;;11.50;99.90;;;;;;4970994;28;20050;-69
2023/03/31 09:41:00;;;;;;;6.22;1.85;;;11.50;99.90;;;;;;4975531;28;20089;-69
2023/03/31 09:43:28;;;;;;;5.75;2.00;;;11.60;99.90;;;;;;4973894;28;20112;-69
2023/03/31 09:45:54;;;;;;;3.58;1.45;;;11.60;99.90;;;;;;4981565;28;20101;-69
2023/03/31 09:48:29;;;;;;;3.08;1.88;;;11.50;99.90;;;;;;4972766;28;20532;-69
2023/03/31 09:50:59;;;;;;;6.07;1.88;;;11.50;99.90;;;;;;4978697;28;20078;-69
2023/03/31 09:53:40;;;;;;;4.70;1.42;;;11.60;99.90;;;;;;4978586;28;20508;-69
2023/03/31 09:56:07;;;;;;;5.00;1.25;;;11.50;99.90;;;;;;4974004;28;20614;-69
2023/03/31 09:58:45;;;;;;;5.38;1.98;;;11.50;99.90;;;;;;4962415;28;20050;-69
2023/03/31 10:01:13;;;;;;;6.13;1.52;;;11.60;99.90;;;;;;4980154;28;20126;-69
2023/03/31 10:03:52;;;;;;;3.53;1.50;;;11.70;99.90;;;;;;4969113;28;20408;-69
2023/03/31 10:06:19;;;;;;;3.17;1.58;;;11.60;99.90;;;;;;4962263;28;20057;-69
2023/03/31 10:08:48;;;;;;;4.55;1.60;;;11.60;99.90;;;;;;4961673;28;21342;-69
2023/03/31 10:11:14;;;;;;;5.15;1.52;;;11.60;99.90;;;;;;4978577;28;20516;-69
2023/03/31 10:13:42;;;;;;;4.28;1.65;;;11.60;99.90;;;;;;4974081;28;20133;-69
2023/03/31 10:16:12;;;;;;;3.75;1.33;;;11.60;99.90;;;;;;4978601;28;20051;-69
2023/03/31 10:18:41;;;;;;;2.40;1.30;;;11.60;99.90;;;;;;4980035;28;20093;-69
2023/03/31 10:21:22;;;;;;;3.33;1.52;;;11.70;99.90;;;;;;4981153;28;20049;-69
2023/03/31 10:23:50;;;;;;;4.63;2.20;;;11.70;99.90;;;;;;4981236;28;20231;-69
2023/03/31 10:26:22;;;;;;;4.10;2.20;;;11.90;99.90;;;;;;4972563;28;20055;-69
2023/03/31 10:28:51;;;;;;;3.97;1.85;;;11.90;99.90;;;;;;4964028;28;20610;-69
2023/03/31 10:31:18;;;;;;;4.32;1.73;;;11.90;99.90;;;;;;4982066;28;20046;-69
2023/03/31 10:33:47;;;;;;;3.63;1.88;;;12.00;99.90;;;;;;4977089;28;20439;-69
2023/03/31 10:36:34;;;;;;;4.70;1.73;;;12.10;99.90;;;;;;4966832;28;20181;-69
2023/03/31 10:39:05;;;;;;;5.95;1.90;;;12.10;99.90;;;;;;4978038;28;20078;-69
2023/03/31 10:41:32;;;;;;;5.40;1.85;;;12.10;99.90;;;;;;4971176;28;20057;-69
2023/03/31 10:44:01;;;;;;;7.15;2.25;;;12.20;99.90;;;;;;4977696;28;20058;-69
2023/03/31 10:46:51;;;;;;;5.03;1.58;;;12.30;99.90;;;;;;4971263;28;20684;-69
2023/03/31 10:49:20;;;;;;;8.13;2.00;;;12.30;99.90;;;;;;4982117;28;20199;-68
2023/03/31 10:51:53;;;;;;;7.93;1.63;;;12.40;99.90;;;;;;4980956;28;20042;-69
2023/03/31 10:54:20;;;;;;;5.50;1.30;;;12.40;99.90;;;;;;4965307;28;20038;-69
2023/03/31 10:56:50;;;;;;;3.50;1.50;;;12.50;99.90;;;;;;4979497;28;20050;-69
2023/03/31 10:59:40;;;;;;;7.70;2.35;;;12.60;99.90;;;;;;4975190;28;20360;-69
2023/03/31 11:02:18;;;;;;;6.70;2.13;;;12.70;99.90;;;;;;4974508;28;20081;-68
2023/03/31 11:05:08;;;;;;;5.70;2.47;;;12.80;99.90;;;;;;4979735;28;20176;-68
2023/03/31 11:08:04;;;;;;;4.63;1.63;;;12.90;99.90;;;;;;4971360;28;20533;-69
2023/03/31 11:10:35;;;;;;;4.57;2.05;;;13.00;99.90;;;;;;4973365;28;20050;-69
2023/03/31 11:13:14;;;;;;;4.82;2.00;;;13.10;99.90;;;;;;4973076;28;20047;-68
2023/03/31 11:15:45;;;;;;;6.95;2.13;;;13.20;99.90;;;;;;4981241;28;20572;-69
2023/03/31 11:18:33;;;;;;;5.43;1.67;;;13.20;99.90;;;;;;4978723;28;20042;-69
2023/03/31 11:21:26;;;;;;;9.90;1.65;;;13.20;99.90;;;;;;4976563;28;20046;-68
2023/03/31 11:24:01;;;;;;;7.47;1.88;;;13.20;99.90;;;;;;4996689;28;20053;-69
2023/03/31 11:27:02;;;;;;;5.55;1.90;;;13.20;99.90;;;;;;4960066;28;20054;-69
2023/03/31 11:29:52;;;;;;;6.80;2.00;;;13.20;99.90;;;;;;4972947;28;20074;-68
2023/03/31 11:32:27;;;;;;;4.85;1.58;;;13.20;99.90;;;;;;4980913;28;20065;-68
2023/03/31 11:35:37;;;;;;;3.25;1.67;;;13.30;99.90;;;;;;4973520;28;20099;-68
2023/03/31 11:38:27;;;;;;;9.63;1.63;;;13.20;99.90;;;;;;4973907;28;20302;-68
2023/03/31 11:41:35;;;;;;;6.22;2.20;;;13.10;99.90;;;;;;4978188;28;20073;-69
2023/03/31 11:44:08;;;;;;;5.68;1.48;;;13.00;99.90;;;;;;4936739;28;20049;-68
2023/03/31 11:46:43;;;;;;;5.00;1.52;;;12.90;99.90;;;;;;4956317;28;20243;-69
2023/03/31 11:49:14;;;;;;;3.92;1.23;;;12.80;99.90;;;;;;4969995;28;20053;-69
2023/03/31 11:52:05;;;;;;;3.42;1.17;;;12.70;99.90;;;;;;4970813;28;20038;-69
2023/03/31 11:54:40;;;;;;;5.45;1.58;;;12.50;99.90;;;;;;4972455;28;20061;-69
2023/03/31 11:57:23;;;;;;;4.68;1.25;;;12.40;99.90;;;;;;4975094;28;20146;-68
2023/03/31 11:59:56;;;;;;;6.10;1.45;;;12.40;99.90;;;;;;4962480;28;20109;-69
2023/03/31 12:02:50;;;;;;;6.68;2.20;;;12.40;99.90;;;;;;4975146;28;20085;-69
2023/03/31 12:05:17;;;;;;;4.55;1.42;;;12.40;99.90;;;;;;4972626;28;20046;-69
2023/03/31 12:07:49;;;;;;;6.25;1.55;;;12.40;99.90;;;;;;4974831;28;20393;-69
2023/03/31 12:10:43;;;;;;;6.57;1.88;;;12.40;99.90;;;;;;4973956;28;20050;-70
2023/03/31 12:13:34;;;;;;;4.10;1.50;;;12.30;99.90;;;;;;4971254;28;20034;-69
2023/03/31 12:16:18;;;;;;;3.72;1.40;;;12.30;99.90;;;;;;4979504;28;20038;-70
2023/03/31 12:19:16;;;;;;;3.97;1.60;;;12.30;99.90;;;;;;4979112;28;20042;-70
2023/03/31 12:21:54;;;;;;;3.97;2.10;;;12.30;99.90;;;;;;4975215;28;20077;-70
2023/03/31 12:24:19;;;;;;;5.50;2.20;;;12.30;99.90;;;;;;4998175;28;20057;-69
2023/03/31 12:27:22;;;;;;;6.23;2.17;;;12.30;99.90;;;;;;4977256;28;20046;-70
2023/03/31 12:29:58;;;;;;;7.95;2.05;;;12.40;99.90;;;;;;4981106;28;20565;-69
2023/03/31 12:32:28;;;;;;;15.30;6.20;;;12.50;99.90;;;;;;4975996;28;20615;-69
2023/03/31 12:35:23;;;;;;;4.78;1.92;;;12.50;99.90;;;;;;4960408;28;20112;-69
2023/03/31 12:38:33;;;;;;;4.22;1.73;;;12.60;99.90;;;;;;4981541;28;20602;-70
2023/03/31 12:41:14;;;;;;;6.18;2.15;;;12.80;99.90;;;;;;4954345;28;20140;-69
2023/03/31 12:43:52;;;;;;;4.00;1.55;;;13.00;99.90;;;;;;4983577;28;20163;-69
2023/03/31 12:46:39;;;;;;;4.70;1.70;;;13.10;99.90;;;;;;4979848;28;20127;-69
2023/03/31 12:49:23;;;;;;;8.13;1.90;;;13.20;99.90;;;;;;4979935;28;20030;-69
2023/03/31 12:52:07;;;;;;;15.55;4.10;;;13.20;99.90;;;;;;4977355;28;20129;-69
2023/03/31 12:55:04;;;;;;;10.32;3.60;;;13.20;99.90;;;;;;4977218;28;20456;-70
2023/03/31 12:57:29;;;;;;;7.25;2.10;;;13.10;99.90;;;;;;4989571;28;20112;-69
2023/03/31 13:00:11;;;;;;;6.22;2.08;;;13.00;99.90;;;;;;4981073;28;20042;-69
2023/03/31 13:02:37;;;;;;;8.80;2.00;;;13.00;99.90;;;;;;4977665;28;20050;-69
2023/03/31 13:05:37;;;;;;;8.85;2.35;;;12.90;99.90;;;;;;4965609;28;20049;-70
2023/03/31 13:08:41;;;;;;;4.32;1.65;;;12.80;99.90;;;;;;4977948;28;20447;-70
2023/03/31 13:11:07;;;;;;;7.63;1.35;;;12.70;99.90;;;;;;4980309;28;20041;-69
2023/03/31 13:13:32;;;;;;;5.40;1.00;;;12.50;99.90;;;;;;4984247;28;20042;-70
2023/03/31 13:16:01;;;;;;;4.90;0.82;;;12.40;99.90;;;;;;4971847;28;20280;-70
2023/03/31 13:18:32;;;;;;;2.88;0.95;;;12.30;99.90;;;;;;4980397;28;20050;-69
2023/03/31 13:21:06;;;;;;;3.25;1.35;;;12.30;99.90;;;;;;4978742;28;20507;-69